createdAt,value
2023-01-11T00:01:12.089Z,9.68
2023-01-11T00:03:39.877Z,9.72
2023-01-11T00:06:08.416Z,9.78
2023-01-11T00:08:36.278Z,9.92
2023-01-11T00:11:04.736Z,9.90
2023-01-11T00:13:34.403Z,10.06
2023-01-11T00:16:08.081Z,9.77
2023-01-11T00:18:36.938Z,9.91
2023-01-11T00:21:06.277Z,9.99
2023-01-11T00:23:35.025Z,10.02
2023-01-11T00:26:04.757Z,10.02
2023-01-11T00:28:34.731Z,9.95
2023-01-11T00:31:02.847Z,10.10
2023-01-11T00:33:30.888Z,10.12
2023-01-11T00:35:58.672Z,10.23
2023-01-11T00:38:46.717Z,10.16
2023-01-11T00:41:34.209Z,10.10
2023-01-11T00:44:22.008Z,10.27
2023-01-11T00:47:06.840Z,10.31
2023-01-11T00:49:34.848Z,10.36
2023-01-11T00:52:05.556Z,10.27
2023-01-11T00:54:33.360Z,10.43
2023-01-11T00:57:01.348Z,10.38
2023-01-11T00:59:30.827Z,10.47
2023-01-11T01:01:58.832Z,10.40
2023-01-11T01:04:26.985Z,10.38
2023-01-11T01:06:55.124Z,10.46
2023-01-11T01:09:23.608Z,10.41
2023-01-11T01:11:51.748Z,10.48
2023-01-11T01:14:29.007Z,10.44
2023-01-11T01:17:01.632Z,10.35
2023-01-11T01:19:31.179Z,10.57
2023-01-11T01:22:00.662Z,10.59
2023-01-11T01:24:30.720Z,10.52
2023-01-11T01:26:59.877Z,10.67
2023-01-11T01:29:27.680Z,10.66
2023-01-11T01:31:55.639Z,10.60
2023-01-11T01:34:25.196Z,10.58
2023-01-11T01:36:53.041Z,10.68
2023-01-11T01:39:20.957Z,10.62
2023-01-11T01:41:48.773Z,10.61
2023-01-11T01:45:07.265Z,10.73
2023-01-11T01:47:46.651Z,10.61
2023-01-11T01:50:23.975Z,10.79
2023-01-11T01:52:57.401Z,10.73
2023-01-11T01:55:31.529Z,10.78
2023-01-11T01:58:03.715Z,10.80
2023-01-11T02:00:33.120Z,10.72
2023-01-11T02:03:03.313Z,10.77
2023-01-11T02:05:32.702Z,10.81
2023-01-11T02:08:03.912Z,10.75
2023-01-11T02:10:34.168Z,10.86
2023-01-11T02:13:06.211Z,10.93
2023-01-11T02:15:34.096Z,10.83
2023-01-11T02:18:02.040Z,10.87
2023-01-11T02:21:01.620Z,10.92
2023-01-11T02:24:12.834Z,10.93
2023-01-11T02:27:30.317Z,10.85
2023-01-11T02:30:17.598Z,10.82
2023-01-11T02:33:00.173Z,10.80
2023-01-11T02:35:43.004Z,10.90
2023-01-11T02:38:25.233Z,10.99
2023-01-11T02:41:06.456Z,11.01
2023-01-11T02:44:02.894Z,11.02
2023-01-11T02:46:44.263Z,11.03
2023-01-11T02:49:34.654Z,11.07
2023-01-11T02:52:17.342Z,11.06
2023-01-11T02:54:54.492Z,11.21
2023-01-11T02:57:25.891Z,11.04
2023-01-11T02:59:57.929Z,11.25
2023-01-11T03:02:27.496Z,11.33
2023-01-11T03:04:55.312Z,11.34
2023-01-11T03:07:50.496Z,11.38
2023-01-11T03:10:36.830Z,11.37
2023-01-11T03:13:20.100Z,11.29
2023-01-11T03:16:25.243Z,11.28
2023-01-11T03:19:19.365Z,11.25
2023-01-11T03:22:00.646Z,11.23
2023-01-11T03:24:41.412Z,11.50
2023-01-11T03:27:31.379Z,11.49
2023-01-11T03:30:09.020Z,11.46
2023-01-11T03:32:47.407Z,11.38
2023-01-11T03:35:28.161Z,11.43
2023-01-11T03:38:05.020Z,11.55
2023-01-11T03:40:39.064Z,11.49
2023-01-11T03:43:12.598Z,11.59
2023-01-11T03:45:49.589Z,11.61
2023-01-11T03:48:24.716Z,11.72
2023-01-11T03:50:57.658Z,11.67
2023-01-11T03:53:31.327Z,11.70
2023-01-11T03:56:02.467Z,11.73
2023-01-11T03:58:31.118Z,11.79
2023-01-11T04:01:00.250Z,11.64
2023-01-11T04:03:28.534Z,11.74
2023-01-11T04:06:02.115Z,11.63
2023-01-11T04:08:31.075Z,11.62
2023-01-11T04:10:59.131Z,11.75
2023-01-11T04:13:27.192Z,11.79
2023-01-11T04:15:55.271Z,11.86
2023-01-11T04:18:23.466Z,11.80
2023-01-11T04:20:51.253Z,11.93
2023-01-11T04:23:20.547Z,11.81
2023-01-11T04:25:48.426Z,11.80
2023-01-11T04:28:16.944Z,11.94
2023-01-11T04:30:44.771Z,11.81
2023-01-11T04:33:14.426Z,11.93
2023-01-11T04:35:44.082Z,11.78
2023-01-11T04:38:12.156Z,11.93
2023-01-11T04:40:41.296Z,11.94
2023-01-11T04:43:08.093Z,12.07
2023-01-11T04:45:36.065Z,11.89
2023-01-11T04:48:03.839Z,11.83
2023-01-11T04:50:31.709Z,11.76
2023-01-11T04:53:00.055Z,12.09
2023-01-11T04:55:28.123Z,11.73
2023-01-11T04:57:57.275Z,11.84
2023-01-11T05:00:25.557Z,11.86
2023-01-11T05:02:53.343Z,12.01
2023-01-11T05:05:21.112Z,12.06
2023-01-11T05:07:50.205Z,11.93
2023-01-11T05:10:20.812Z,11.78
2023-01-11T05:12:48.856Z,11.90
2023-01-11T05:15:18.160Z,11.99
2023-01-11T05:17:46.200Z,12.34
2023-01-11T05:20:14.313Z,12.44
2023-01-11T05:22:42.332Z,12.52
2023-01-11T05:25:10.710Z,12.13
2023-01-11T05:27:38.677Z,12.22
2023-01-11T05:30:08.488Z,12.02
2023-01-11T05:32:37.673Z,12.41
2023-01-11T05:35:09.904Z,12.21
2023-01-11T05:37:37.685Z,12.37
2023-01-11T05:40:07.126Z,12.32
2023-01-11T05:42:34.952Z,12.20
2023-01-11T05:45:20.378Z,12.20
2023-01-11T05:47:49.506Z,12.13
2023-01-11T05:50:17.797Z,12.20
2023-01-11T05:52:45.609Z,12.00
2023-01-11T05:55:13.376Z,12.05
2023-01-11T05:57:42.563Z,12.16
2023-01-11T06:00:13.639Z,12.11
2023-01-11T06:02:41.602Z,12.14
2023-01-11T06:05:11.503Z,12.50
2023-01-11T06:07:40.072Z,12.29
2023-01-11T06:10:09.974Z,11.92
2023-01-11T06:12:37.817Z,12.53
2023-01-11T06:15:06.829Z,12.63
2023-01-11T06:17:34.606Z,12.36
2023-01-11T06:20:02.410Z,12.82
2023-01-11T06:22:31.803Z,12.79
2023-01-11T06:24:59.622Z,12.36
2023-01-11T06:27:27.432Z,12.77
2023-01-11T06:29:55.175Z,12.76
2023-01-11T06:32:23.140Z,12.93
2023-01-11T06:34:50.900Z,12.39
2023-01-11T06:37:18.630Z,12.67
2023-01-11T06:39:47.906Z,12.42
2023-01-11T06:42:15.640Z,12.35
2023-01-11T06:44:43.378Z,12.95
2023-01-11T06:47:11.178Z,12.51
2023-01-11T06:49:39.131Z,12.69
2023-01-11T06:52:06.917Z,13.12
2023-01-11T06:54:34.674Z,12.42
2023-01-11T06:57:03.938Z,12.37
2023-01-11T06:59:31.758Z,12.34
2023-01-11T07:02:00.017Z,12.24
2023-01-11T07:04:27.781Z,12.43
2023-01-11T07:06:56.288Z,12.02
2023-01-11T07:09:24.337Z,12.28
2023-01-11T07:11:52.300Z,12.61
2023-01-11T07:14:22.292Z,12.76
2023-01-11T07:16:50.059Z,12.65
2023-01-11T07:19:18.497Z,12.56
2023-01-11T07:21:46.259Z,12.72
2023-01-11T07:24:14.075Z,12.39
2023-01-11T07:26:42.368Z,12.20
2023-01-11T07:29:10.852Z,12.11
2023-01-11T07:31:40.032Z,12.43
2023-01-11T07:34:07.855Z,12.29
2023-01-11T07:36:39.347Z,11.92
2023-01-11T07:39:07.771Z,12.14
2023-01-11T07:41:53.020Z,11.92
2023-01-11T07:44:20.826Z,11.83
2023-01-11T07:46:50.288Z,11.75
2023-01-11T07:49:18.491Z,11.72
2023-01-11T07:51:46.265Z,11.57
2023-01-11T07:54:14.430Z,11.65
2023-01-11T07:56:42.240Z,11.72
2023-01-11T07:59:10.852Z,11.89
2023-01-11T08:01:38.758Z,11.60
2023-01-11T08:04:11.851Z,11.68
2023-01-11T08:06:40.219Z,11.63
2023-01-11T08:09:10.118Z,11.63
2023-01-11T08:11:55.207Z,11.58
2023-01-11T08:14:41.580Z,11.49
2023-01-11T08:17:11.950Z,11.39
2023-01-11T08:19:41.940Z,11.32
2023-01-11T08:22:10.245Z,11.34
2023-01-11T08:24:38.088Z,11.64
2023-01-11T08:27:06.597Z,11.75
2023-01-11T08:29:34.408Z,11.35
2023-01-11T08:32:02.383Z,11.20
2023-01-11T08:34:31.679Z,11.52
2023-01-11T08:37:02.155Z,11.28
2023-01-11T08:39:31.111Z,11.09
2023-01-11T08:41:59.130Z,11.44
2023-01-11T08:44:35.039Z,11.39
2023-01-11T08:47:03.288Z,11.75
2023-01-11T08:49:31.417Z,11.16
2023-01-11T08:51:59.612Z,11.36
2023-01-11T08:54:28.947Z,10.97
2023-01-11T08:56:57.026Z,11.39
2023-01-11T08:59:24.814Z,10.99
2023-01-11T09:01:52.829Z,11.09
2023-01-11T09:04:25.169Z,11.24
2023-01-11T09:06:54.357Z,11.00
2023-01-11T09:09:22.253Z,11.07
2023-01-11T09:12:00.238Z,10.92
2023-01-11T09:14:31.100Z,11.13
2023-01-11T09:17:00.190Z,11.30
2023-01-11T09:19:28.053Z,11.09
2023-01-11T09:22:00.703Z,10.87
2023-01-11T09:24:28.925Z,10.76
2023-01-11T09:27:00.459Z,10.90
2023-01-11T09:29:28.396Z,10.73
2023-01-11T09:31:56.235Z,10.99
2023-01-11T09:34:25.415Z,10.90
2023-01-11T09:36:53.299Z,10.80
2023-01-11T09:39:24.362Z,10.95
2023-01-11T09:42:18.501Z,10.96
2023-01-11T09:44:52.975Z,10.84
2023-01-11T09:47:40.583Z,10.91
2023-01-11T09:50:18.576Z,10.80
2023-01-11T09:52:52.846Z,10.59
2023-01-11T09:55:33.244Z,10.69
2023-01-11T09:58:29.190Z,10.58
2023-01-11T10:01:10.418Z,10.53
2023-01-11T10:04:22.218Z,10.72
2023-01-11T10:07:12.488Z,10.53
2023-01-11T10:18:27.585Z,10.19
2023-01-11T10:19:34.174Z,10.29
2023-01-11T10:22:01.329Z,10.38
2023-01-11T10:24:37.271Z,10.32
2023-01-11T10:27:18.704Z,10.49
2023-01-11T10:29:57.670Z,10.47
2023-01-11T10:32:53.138Z,10.58
2023-01-11T10:35:45.545Z,10.36
2023-01-11T10:38:42.622Z,10.41
2023-01-11T10:41:26.270Z,10.79
2023-01-11T10:44:17.558Z,10.80
2023-01-11T10:46:51.001Z,11.11
2023-01-11T10:49:46.022Z,11.03
2023-01-11T10:52:29.232Z,11.18
2023-01-11T10:54:58.930Z,11.14
2023-01-11T10:58:01.264Z,11.04
2023-01-11T11:00:42.273Z,11.01
2023-01-11T11:03:45.500Z,10.96
2023-01-11T11:06:32.720Z,11.41
2023-01-11T11:09:15.066Z,11.53
2023-01-11T11:11:53.230Z,11.04
2023-01-11T11:14:31.182Z,11.10
2023-01-11T11:17:14.377Z,10.98
2023-01-11T11:19:42.758Z,11.43
2023-01-11T11:22:12.940Z,11.53
2023-01-11T11:24:45.419Z,11.47
2023-01-11T11:27:25.533Z,11.93
2023-01-11T11:29:56.990Z,11.84
2023-01-11T11:32:31.398Z,12.49
2023-01-11T11:34:59.659Z,12.37
2023-01-11T11:37:35.466Z,12.94
2023-01-11T11:40:04.465Z,12.33
2023-01-11T11:42:32.467Z,12.19
2023-01-11T11:45:18.424Z,11.76
2023-01-11T11:48:03.636Z,11.79
2023-01-11T11:50:44.135Z,11.39
2023-01-11T11:53:28.837Z,11.48
2023-01-11T11:55:57.247Z,11.29
2023-01-11T11:58:28.245Z,11.24
2023-01-11T12:00:56.057Z,11.30
2023-01-11T12:03:30.548Z,11.46
2023-01-11T12:06:02.318Z,11.51
2023-01-11T12:08:36.144Z,11.39
2023-01-11T12:11:21.243Z,11.20
2023-01-11T12:14:03.887Z,11.24
2023-01-11T12:16:37.963Z,11.22
2023-01-11T12:19:27.274Z,11.54
2023-01-11T12:22:12.196Z,11.85
2023-01-11T12:24:41.306Z,11.84
2023-01-11T12:27:28.523Z,11.77
2023-01-11T12:30:19.950Z,11.57
2023-01-11T12:33:29.743Z,11.40
2023-01-11T12:36:06.825Z,11.21
2023-01-11T12:38:50.069Z,11.50
2023-01-11T12:41:50.391Z,11.39
2023-01-11T12:44:43.193Z,11.13
2023-01-11T12:47:50.203Z,11.48
2023-01-11T12:50:25.167Z,11.39
2023-01-11T12:53:15.378Z,11.40
2023-01-11T12:56:04.295Z,11.24
2023-01-11T12:58:41.907Z,11.09
2023-01-11T13:01:27.171Z,11.45
2023-01-11T13:04:46.439Z,11.99
2023-01-11T13:07:35.447Z,11.52
2023-01-11T13:10:23.561Z,11.36
2023-01-11T13:12:59.565Z,11.24
2023-01-11T13:15:43.868Z,11.05
2023-01-11T13:18:23.357Z,11.01
2023-01-11T13:21:02.221Z,11.50
2023-01-11T13:23:41.909Z,11.69
2023-01-11T13:26:23.784Z,12.44
2023-01-11T13:29:00.863Z,12.45
2023-01-11T13:31:33.114Z,12.59
2023-01-11T13:34:08.586Z,12.47
2023-01-11T13:36:45.487Z,12.73
2023-01-11T13:39:23.027Z,12.17
2023-01-11T13:41:56.719Z,11.86
2023-01-11T13:44:31.371Z,11.87
2023-01-11T13:47:14.732Z,11.39
2023-01-11T13:50:03.749Z,11.01
2023-01-11T13:52:53.945Z,11.49
2023-01-11T13:55:31.376Z,11.50
2023-01-11T13:58:11.568Z,11.81
2023-01-11T14:00:45.056Z,11.55
2023-01-11T14:03:27.426Z,11.69
2023-01-11T14:06:17.974Z,11.55
2023-01-11T14:09:08.469Z,11.57
2023-01-11T14:11:53.429Z,11.58
2023-01-11T14:14:51.175Z,11.16
2023-01-11T14:17:42.911Z,11.17
2023-01-11T14:20:27.240Z,11.54
2023-01-11T14:23:11.821Z,11.22
2023-01-11T14:26:05.666Z,11.44
2023-01-11T14:28:58.212Z,11.37
2023-01-11T14:32:04.651Z,11.37
2023-01-11T14:35:19.652Z,11.63
2023-01-11T14:38:22.105Z,11.43
2023-01-11T14:41:43.078Z,11.57
2023-01-11T14:44:46.520Z,11.76
2023-01-11T14:47:33.813Z,11.60
2023-01-11T14:50:22.203Z,11.68
2023-01-11T14:52:53.770Z,11.64
2023-01-11T14:55:28.823Z,11.63
2023-01-11T14:58:19.470Z,11.16
2023-01-11T15:01:11.978Z,11.42
2023-01-11T15:03:56.409Z,10.99
2023-01-11T15:06:24.886Z,10.82
2023-01-11T15:08:56.225Z,10.62
2023-01-11T15:11:43.059Z,10.49
2023-01-11T15:14:32.663Z,10.42
2023-01-11T15:17:20.652Z,10.47
2023-01-11T15:19:51.365Z,10.42
2023-01-11T15:22:29.195Z,10.53
2023-01-11T15:25:01.598Z,10.58
2023-01-11T15:27:35.630Z,10.43
2023-01-11T15:30:08.416Z,10.49
2023-01-11T15:32:37.690Z,10.46
2023-01-11T15:35:34.628Z,10.57
2023-01-11T15:38:17.900Z,10.11
2023-01-11T15:40:47.371Z,10.43
2023-01-11T15:43:59.536Z,10.22
2023-01-11T15:47:19.347Z,10.23
2023-01-11T15:50:39.469Z,10.36
2023-01-11T15:53:54.753Z,10.02
2023-01-11T15:57:11.688Z,10.34
2023-01-11T16:00:37.755Z,10.41
2023-01-11T16:03:31.184Z,10.50
2023-01-11T16:06:14.875Z,10.49
2023-01-11T16:09:00.159Z,10.50
2023-01-11T16:11:42.186Z,10.37
2023-01-11T16:14:45.975Z,10.37
2023-01-11T16:17:22.158Z,10.32
2023-01-11T16:19:55.262Z,10.12
2023-01-11T16:22:26.678Z,10.38
2023-01-11T16:24:59.840Z,10.43
2023-01-11T16:27:31.359Z,10.49
2023-01-11T16:29:59.517Z,10.27
2023-01-11T16:32:33.339Z,10.25
2023-01-11T16:35:03.563Z,10.39
2023-01-11T16:37:37.330Z,10.52
2023-01-11T16:40:15.237Z,10.64
2023-01-11T16:42:49.901Z,10.52
2023-01-11T16:45:22.635Z,10.55
2023-01-11T16:48:14.202Z,10.52
2023-01-11T16:50:49.403Z,10.56
2023-01-11T16:53:19.065Z,10.52
2023-01-11T16:56:02.910Z,10.47
2023-01-11T16:58:34.230Z,10.70
2023-01-11T17:01:05.654Z,10.60
2023-01-11T17:03:38.696Z,10.70
2023-01-11T17:06:21.375Z,10.65
2023-01-11T17:08:52.260Z,10.64
2023-01-11T17:11:33.079Z,10.56
2023-01-11T17:14:49.684Z,10.51
2023-01-11T17:17:19.659Z,10.41
2023-01-11T17:19:51.339Z,10.57
2023-01-11T17:22:23.655Z,10.51
2023-01-11T17:24:57.541Z,10.33
2023-01-11T17:27:33.085Z,10.52
2023-01-11T17:30:03.723Z,10.49
2023-01-11T17:32:38.633Z,10.35
2023-01-11T17:35:23.363Z,10.51
2023-01-11T17:37:54.338Z,10.52
2023-01-11T17:40:35.495Z,10.50
2023-01-11T17:43:24.388Z,10.55
2023-01-11T17:45:56.076Z,10.42
2023-01-11T17:48:24.819Z,10.60
2023-01-11T17:50:58.247Z,10.55
2023-01-11T17:53:29.427Z,10.49
2023-01-11T17:55:59.490Z,10.60
2023-01-11T17:58:29.350Z,10.63
2023-01-11T18:01:18.981Z,10.54
2023-01-11T18:03:51.944Z,10.38
2023-01-11T18:06:29.392Z,10.56
2023-01-11T18:09:00.653Z,10.45
2023-01-11T18:11:33.260Z,10.56
2023-01-11T18:14:06.664Z,10.41
2023-01-11T18:16:34.984Z,10.32
2023-01-11T18:19:23.696Z,10.60
2023-01-11T18:21:57.050Z,10.67
2023-01-11T18:24:44.976Z,10.72
2023-01-11T18:27:29.510Z,10.68
2023-01-11T18:30:06.021Z,10.63
2023-01-11T18:32:44.377Z,10.72
2023-01-11T18:35:19.132Z,10.76
2023-01-11T18:37:48.860Z,10.89
2023-01-11T18:40:19.041Z,10.69
2023-01-11T18:42:49.905Z,10.75
2023-01-11T18:45:18.294Z,10.80
2023-01-11T18:47:46.265Z,10.70
2023-01-11T18:50:14.643Z,10.84
2023-01-11T18:52:44.742Z,10.68
2023-01-11T18:55:15.569Z,10.70
2023-01-11T18:57:43.316Z,10.71
2023-01-11T19:00:16.791Z,10.69
2023-01-11T19:02:45.899Z,10.67
2023-01-11T19:05:18.547Z,10.67
2023-01-11T19:07:46.962Z,10.68
2023-01-11T19:10:19.964Z,10.58
2023-01-11T19:12:48.502Z,10.53
2023-01-11T19:15:17.866Z,10.45
2023-01-11T19:17:45.881Z,10.45
2023-01-11T19:20:14.205Z,10.47
2023-01-11T19:22:42.549Z,10.30
2023-01-11T19:25:11.735Z,9.95
2023-01-11T19:27:41.349Z,9.66
2023-01-11T19:30:12.004Z,9.79
2023-01-11T19:32:40.225Z,9.71
2023-01-11T19:35:09.160Z,9.58
2023-01-11T19:37:38.625Z,9.69
2023-01-11T19:40:09.413Z,9.53
2023-01-11T19:42:38.215Z,9.58
2023-01-11T19:45:09.388Z,9.50
2023-01-11T19:47:37.206Z,9.62
2023-01-11T19:50:06.446Z,9.57
2023-01-11T19:52:34.448Z,9.44
2023-01-11T19:55:02.552Z,9.39
2023-01-11T19:57:30.465Z,9.39
2023-01-11T19:59:58.357Z,9.47
2023-01-11T20:02:27.922Z,9.38
2023-01-11T20:04:55.996Z,9.43
2023-01-11T20:07:23.835Z,9.46
2023-01-11T20:09:51.713Z,9.29
2023-01-11T20:12:19.567Z,9.55
2023-01-11T20:14:47.697Z,9.49
2023-01-11T20:17:19.161Z,9.49
2023-01-11T20:19:54.496Z,9.50
2023-01-11T20:22:23.247Z,9.50
2023-01-11T20:24:51.495Z,9.41
2023-01-11T20:27:19.631Z,9.48
2023-01-11T20:29:47.884Z,9.49
2023-01-11T20:32:39.018Z,9.50
2023-01-11T20:35:07.525Z,9.49
2023-01-11T20:37:35.362Z,9.52
2023-01-11T20:40:03.341Z,9.46
2023-01-11T20:42:32.347Z,9.35
2023-01-11T20:45:00.162Z,9.22
2023-01-11T20:47:27.942Z,9.26
2023-01-11T20:49:55.758Z,9.28
2023-01-11T20:52:24.963Z,9.20
2023-01-11T20:54:52.791Z,9.27
2023-01-11T20:57:20.691Z,9.19
2023-01-11T20:59:48.600Z,8.97
2023-01-11T21:02:16.438Z,9.18
2023-01-11T21:04:44.295Z,9.20
2023-01-11T21:07:12.598Z,9.22
2023-01-11T21:09:42.360Z,9.16
2023-01-11T21:12:10.225Z,9.11
2023-01-11T21:14:38.159Z,9.30
2023-01-11T21:17:06.091Z,9.16
2023-01-11T21:19:33.905Z,9.10
2023-01-11T21:22:01.730Z,9.03
2023-01-11T21:24:29.795Z,9.12
2023-01-11T21:26:59.081Z,8.95
2023-01-11T21:29:26.891Z,9.08
2023-01-11T21:31:54.780Z,9.19
2023-01-11T21:34:23.667Z,9.17
2023-01-11T21:36:51.775Z,9.32
2023-01-11T21:39:24.827Z,9.29
2023-01-11T21:41:59.613Z,9.23
2023-01-11T21:44:33.928Z,9.39
2023-01-11T21:47:03.287Z,9.17
2023-01-11T21:49:31.301Z,9.28
2023-01-11T21:51:59.867Z,9.42
2023-01-11T21:54:27.933Z,9.27
2023-01-11T21:56:55.804Z,9.29
2023-01-11T21:59:24.436Z,9.31
2023-01-11T22:01:53.842Z,9.35
2023-01-11T22:04:23.441Z,9.50
2023-01-11T22:06:54.385Z,9.46
2023-01-11T22:09:23.527Z,9.53
2023-01-11T22:11:51.513Z,9.56
2023-01-11T22:14:21.358Z,9.47
2023-01-11T22:16:49.306Z,9.47
2023-01-11T22:19:18.971Z,9.62
2023-01-11T22:21:47.087Z,9.57
2023-01-11T22:24:15.599Z,9.48
2023-01-11T22:26:43.380Z,9.50
2023-01-11T22:29:15.493Z,9.55
2023-01-11T22:31:47.811Z,9.45
2023-01-11T22:34:18.188Z,9.43
2023-01-11T22:36:46.823Z,9.47
2023-01-11T22:39:19.329Z,9.60
2023-01-11T22:41:48.704Z,9.56
2023-01-11T22:44:17.434Z,9.52
2023-01-11T22:46:46.213Z,9.58
2023-01-11T22:49:14.930Z,9.42
2023-01-11T22:51:45.584Z,9.65
2023-01-11T22:54:14.100Z,9.39
2023-01-11T22:56:43.157Z,9.66
2023-01-11T22:59:11.831Z,9.77
2023-01-11T23:01:42.228Z,9.87
2023-01-11T23:04:14.449Z,9.73
2023-01-11T23:06:44.419Z,9.55
2023-01-11T23:09:17.042Z,9.73
2023-01-11T23:12:04.025Z,9.77
2023-01-11T23:14:33.893Z,9.73
2023-01-11T23:17:05.733Z,9.54
2023-01-11T23:19:36.004Z,9.54
2023-01-11T23:22:06.801Z,9.49
2023-01-11T23:24:36.175Z,9.40
2023-01-11T23:27:04.624Z,9.40
2023-01-11T23:29:32.887Z,9.55
2023-01-11T23:32:00.960Z,9.49
2023-01-11T23:34:29.211Z,9.38
2023-01-11T23:36:57.242Z,9.42
2023-01-11T23:39:26.681Z,9.52
2023-01-11T23:42:12.313Z,9.45
2023-01-11T23:44:40.097Z,9.31
2023-01-11T23:47:22.118Z,9.35
2023-01-11T23:49:51.298Z,9.31
2023-01-11T23:52:20.767Z,9.33
2023-01-11T23:54:49.995Z,9.30
2023-01-11T23:57:19.490Z,9.37
2023-01-11T23:59:47.820Z,9.29
